Terminal Aerodrome Forecast
Issued by NWS Charleston, WV

Current Version | Previous Version | Text Only | Print | Product List | Glossary Off
Versions: 1 2 3 4 5 6 7 8 9 10 11 12 13 14 15 16 17 18 19 20 21 22 23 24 25 26 27 28 29 30 31

000
FTUS41 KRLX 290534
TAFHTS
TAF
KHTS 290534Z 2906/3006 16007KT P6SM BKN020
     FM290900 VRB04KT P6SM OVC015
     FM291400 36004KT P6SM BKN020
     FM291700 VRB03KT P6SM SHRA VCTS BKN035CB
     FM292200 VRB03KT P6SM SHRA OVC035
     FM300200 00000KT P6SM OVC025
     FM300500 00000KT P6SM BKN010=

USA.gov is the U.S. government's official web portal to all federal, state and local government web resources and services.